createdAt,value
2023-05-06T00:00:15.172Z,246.34
2023-05-06T00:01:15.286Z,245.77
2023-05-06T00:02:15.205Z,246.19
2023-05-06T00:03:15.215Z,246.27
2023-05-06T00:04:15.183Z,247.33
2023-05-06T00:05:15.137Z,245.43
2023-05-06T00:06:15.170Z,247.18
2023-05-06T00:07:15.143Z,246.53
2023-05-06T00:08:15.112Z,246.56
2023-05-06T00:09:15.137Z,247.25
2023-05-06T00:10:15.114Z,246.12
2023-05-06T00:11:15.088Z,247.37
2023-05-06T00:12:15.094Z,244.86
2023-05-06T00:13:15.260Z,246.68
2023-05-06T00:14:15.061Z,246.06
2023-05-06T00:15:15.058Z,247.82
2023-05-06T00:16:15.115Z,247.67
2023-05-06T00:17:15.074Z,248.54
2023-05-06T00:18:15.084Z,248.38
2023-05-06T00:19:15.052Z,249.50
2023-05-06T00:20:15.039Z,248.39
2023-05-06T00:21:15.029Z,249.50
2023-05-06T00:22:15.007Z,248.14
2023-05-06T00:23:15.008Z,248.29
2023-05-06T00:24:14.986Z,248.33
2023-05-06T00:25:15.000Z,249.88
2023-05-06T00:26:14.992Z,247.83
2023-05-06T00:27:14.974Z,248.67
2023-05-06T00:28:14.973Z,248.56
2023-05-06T00:29:14.962Z,249.40
2023-05-06T00:30:14.973Z,248.19
2023-05-06T00:31:14.958Z,246.56
2023-05-06T00:32:14.972Z,247.18
2023-05-06T00:33:15.006Z,247.92
2023-05-06T00:34:14.967Z,246.31
2023-05-06T00:35:14.934Z,247.59
2023-05-06T00:36:14.897Z,247.41
2023-05-06T00:37:14.909Z,247.65
2023-05-06T00:38:14.891Z,248.08
2023-05-06T00:39:14.918Z,248.37
2023-05-06T00:40:15.718Z,249.88
2023-05-06T00:41:14.890Z,248.57
2023-05-06T00:42:14.957Z,248.18
2023-05-06T00:43:14.894Z,248.80
2023-05-06T00:44:14.854Z,247.62
2023-05-06T00:45:14.856Z,248.34
2023-05-06T00:46:14.893Z,247.14
2023-05-06T00:47:14.819Z,250.00
2023-05-06T00:48:14.884Z,248.72
2023-05-06T00:49:14.986Z,248.63
2023-05-06T00:50:14.808Z,247.46
2023-05-06T00:51:14.790Z,248.28
2023-05-06T00:52:14.820Z,247.00
2023-05-06T00:53:14.792Z,247.62
2023-05-06T00:54:14.824Z,247.02
2023-05-06T00:55:14.789Z,248.54
2023-05-06T00:56:14.791Z,247.64
2023-05-06T00:57:14.771Z,247.88
2023-05-06T00:58:14.746Z,248.73
2023-05-06T00:59:14.778Z,248.12
2023-05-06T01:00:14.747Z,248.19
2023-05-06T01:01:14.751Z,247.72
2023-05-06T01:02:14.840Z,249.14
2023-05-06T01:03:14.818Z,246.41
2023-05-06T01:04:14.751Z,247.34
2023-05-06T01:05:14.809Z,246.95
2023-05-06T01:06:14.707Z,248.66
2023-05-06T01:07:14.695Z,248.06
2023-05-06T01:08:14.726Z,248.64
2023-05-06T01:09:14.676Z,249.97
2023-05-06T01:10:14.683Z,249.37
2023-05-06T01:11:15.930Z,247.80
2023-05-06T01:12:14.702Z,248.61
2023-05-06T01:13:14.717Z,247.74
2023-05-06T01:14:14.661Z,247.28
2023-05-06T01:15:14.660Z,248.04
2023-05-06T01:16:14.623Z,247.96
2023-05-06T01:17:14.700Z,247.46
2023-05-06T01:18:14.630Z,248.87
2023-05-06T01:19:14.652Z,246.82
2023-05-06T01:20:14.597Z,247.11
2023-05-06T01:21:14.649Z,248.04
2023-05-06T01:22:14.639Z,245.70
2023-05-06T01:23:14.619Z,246.93
2023-05-06T01:24:14.627Z,245.56
2023-05-06T01:25:14.607Z,247.21
2023-05-06T01:26:14.588Z,246.89
2023-05-06T01:27:14.639Z,245.99
2023-05-06T01:28:14.583Z,246.97
2023-05-06T01:29:14.572Z,246.58
2023-05-06T01:30:14.548Z,245.67
2023-05-06T01:31:14.602Z,243.63
2023-05-06T01:32:14.529Z,244.69
2023-05-06T01:33:14.532Z,245.05
2023-05-06T01:34:14.517Z,244.69
2023-05-06T01:35:14.582Z,245.48
2023-05-06T01:36:14.498Z,246.19
2023-05-06T01:37:14.602Z,245.10
2023-05-06T01:38:14.495Z,245.45
2023-05-06T01:39:14.508Z,245.71
2023-05-06T01:40:14.510Z,246.43
2023-05-06T01:41:14.489Z,245.44
2023-05-06T01:42:14.443Z,244.61
2023-05-06T01:43:14.485Z,246.98
2023-05-06T01:44:14.465Z,245.62
2023-05-06T01:45:14.435Z,246.78
2023-05-06T01:46:14.478Z,247.57
2023-05-06T01:47:14.456Z,249.50
2023-05-06T01:48:14.436Z,248.09
2023-05-06T01:49:14.441Z,247.93
2023-05-06T01:50:14.448Z,248.62
2023-05-06T01:51:14.415Z,249.26
2023-05-06T01:52:14.416Z,248.94
2023-05-06T01:53:14.486Z,248.02
2023-05-06T01:54:14.406Z,248.63
2023-05-06T01:55:14.400Z,248.91
2023-05-06T01:56:14.390Z,248.18
2023-05-06T01:57:14.393Z,248.54
2023-05-06T01:58:14.364Z,247.96
2023-05-06T01:59:14.364Z,248.33
2023-05-06T02:00:14.360Z,249.12
2023-05-06T02:01:14.371Z,248.82
2023-05-06T02:02:14.314Z,248.35
2023-05-06T02:03:14.512Z,248.27
2023-05-06T02:04:14.296Z,249.28
2023-05-06T02:05:14.339Z,247.54
2023-05-06T02:06:14.303Z,248.43
2023-05-06T02:07:14.298Z,247.93
2023-05-06T02:08:14.297Z,248.08
2023-05-06T02:09:14.291Z,248.07
2023-05-06T02:10:14.278Z,246.97
2023-05-06T02:11:14.326Z,248.39
2023-05-06T02:12:14.287Z,248.77
2023-05-06T02:13:14.341Z,249.31
2023-05-06T02:14:14.261Z,250.05
2023-05-06T02:15:14.261Z,248.03
2023-05-06T02:16:14.274Z,248.15
2023-05-06T02:17:14.224Z,248.54
2023-05-06T02:18:14.240Z,248.69
2023-05-06T02:19:14.212Z,248.88
2023-05-06T02:20:14.191Z,249.28
2023-05-06T02:21:14.202Z,247.06
2023-05-06T02:22:14.294Z,249.01
2023-05-06T02:23:14.207Z,247.98
2023-05-06T02:24:14.228Z,247.52
2023-05-06T02:25:14.245Z,247.85
2023-05-06T02:26:14.152Z,248.31
2023-05-06T02:27:14.144Z,247.74
2023-05-06T02:28:14.166Z,247.65
2023-05-06T02:29:14.199Z,247.13
2023-05-06T02:30:14.135Z,248.51
2023-05-06T02:31:14.204Z,247.91
2023-05-06T02:32:14.126Z,249.35
2023-05-06T02:33:14.125Z,249.15
2023-05-06T02:34:14.101Z,249.78
2023-05-06T02:35:14.138Z,249.30
2023-05-06T02:36:14.074Z,248.75
2023-05-06T02:37:14.084Z,249.59
2023-05-06T02:38:14.095Z,248.95
2023-05-06T02:39:14.091Z,248.37
2023-05-06T02:40:14.083Z,249.04
2023-05-06T02:41:14.142Z,248.89
2023-05-06T02:42:14.155Z,248.26
2023-05-06T02:43:14.058Z,247.48
2023-05-06T02:44:14.036Z,248.57
2023-05-06T02:45:14.045Z,248.47
2023-05-06T02:46:14.071Z,248.17
2023-05-06T02:47:14.015Z,247.73
2023-05-06T02:48:14.030Z,246.58
2023-05-06T02:49:14.030Z,248.15
2023-05-06T02:50:13.991Z,248.61
2023-05-06T02:51:13.961Z,246.10
2023-05-06T02:52:13.978Z,247.56
2023-05-06T02:53:13.952Z,248.24
2023-05-06T02:54:13.968Z,247.58
2023-05-06T02:55:14.024Z,247.50
2023-05-06T02:56:13.972Z,246.82
2023-05-06T02:57:14.008Z,246.69
2023-05-06T02:58:13.936Z,247.85
2023-05-06T02:59:14.006Z,245.70
2023-05-06T03:00:13.924Z,247.04
2023-05-06T03:01:13.959Z,245.78
2023-05-06T03:02:13.918Z,245.87
2023-05-06T03:03:13.909Z,244.84
2023-05-06T03:04:13.967Z,245.00
2023-05-06T03:05:13.932Z,244.11
2023-05-06T03:06:13.987Z,243.76
2023-05-06T03:07:13.967Z,242.14
2023-05-06T03:08:13.948Z,241.40
2023-05-06T03:09:13.952Z,242.38
2023-05-06T03:10:13.968Z,240.95
2023-05-06T03:11:14.034Z,240.55
2023-05-06T03:12:13.996Z,241.09
2023-05-06T03:13:14.086Z,240.14
2023-05-06T03:14:13.990Z,241.26
2023-05-06T03:15:14.032Z,241.22
2023-05-06T03:16:14.071Z,240.38
2023-05-06T03:17:14.054Z,242.40
2023-05-06T03:18:14.067Z,242.87
2023-05-06T03:19:14.067Z,243.73
2023-05-06T03:20:14.054Z,245.53
2023-05-06T03:21:14.143Z,244.34
2023-05-06T03:22:14.123Z,244.43
2023-05-06T03:23:14.127Z,244.54
2023-05-06T03:24:14.181Z,244.43
2023-05-06T03:25:14.185Z,245.43
2023-05-06T03:26:14.161Z,244.66
2023-05-06T03:27:14.146Z,245.87
2023-05-06T03:28:14.188Z,246.17
2023-05-06T03:29:14.194Z,245.76
2023-05-06T03:30:14.204Z,246.08
2023-05-06T03:31:14.258Z,245.96
2023-05-06T03:32:14.234Z,246.17
2023-05-06T03:33:14.255Z,246.48
2023-05-06T03:34:14.280Z,246.94
2023-05-06T03:35:14.304Z,246.94
2023-05-06T03:36:14.290Z,246.23
2023-05-06T03:37:14.307Z,247.19
2023-05-06T03:38:14.303Z,246.31
2023-05-06T03:39:14.438Z,246.48
2023-05-06T03:40:14.339Z,247.25
2023-05-06T03:41:14.412Z,246.15
2023-05-06T03:42:14.403Z,245.82
2023-05-06T03:43:14.394Z,245.82
2023-05-06T03:44:14.463Z,245.84
2023-05-06T03:45:14.568Z,246.99
2023-05-06T03:46:14.485Z,246.25
2023-05-06T03:47:14.516Z,246.54
2023-05-06T03:48:14.483Z,247.11
2023-05-06T03:49:14.512Z,248.29
2023-05-06T03:50:14.489Z,248.80
2023-05-06T03:51:14.556Z,248.74
2023-05-06T03:52:14.533Z,248.74
2023-05-06T03:53:14.604Z,249.63
2023-05-06T03:54:14.573Z,248.53
2023-05-06T03:55:14.626Z,248.62
2023-05-06T03:56:14.608Z,247.88
2023-05-06T03:57:14.630Z,249.17
2023-05-06T03:58:14.669Z,247.97
2023-05-06T03:59:14.674Z,248.42
2023-05-06T04:00:14.683Z,248.77
2023-05-06T04:01:14.889Z,248.74
2023-05-06T04:02:14.790Z,248.54
2023-05-06T04:03:14.821Z,249.24
2023-05-06T04:04:14.849Z,248.20
2023-05-06T04:05:14.772Z,248.40
2023-05-06T04:06:14.831Z,249.45
2023-05-06T04:07:14.863Z,249.51
2023-05-06T04:08:14.820Z,250.00
2023-05-06T04:09:14.886Z,249.31
2023-05-06T04:10:14.896Z,249.12
2023-05-06T04:11:14.908Z,248.18
2023-05-06T04:12:14.927Z,248.87
2023-05-06T04:13:15.047Z,249.11
2023-05-06T04:14:14.960Z,249.45
2023-05-06T04:15:14.949Z,247.91
2023-05-06T04:16:15.002Z,248.90
2023-05-06T04:17:15.192Z,248.56
2023-05-06T04:18:15.051Z,249.02
2023-05-06T04:19:15.010Z,248.09
2023-05-06T04:20:15.016Z,248.22
2023-05-06T04:21:15.040Z,248.80
2023-05-06T04:22:15.057Z,248.40
2023-05-06T04:23:15.113Z,247.96
2023-05-06T04:24:15.130Z,247.94
2023-05-06T04:25:15.153Z,247.43
2023-05-06T04:26:15.146Z,247.64
2023-05-06T04:27:15.240Z,246.93
2023-05-06T04:28:15.223Z,246.80
2023-05-06T04:29:15.229Z,246.65
2023-05-06T04:30:15.302Z,247.78
2023-05-06T04:31:15.292Z,245.85
2023-05-06T04:32:15.292Z,245.41
2023-05-06T04:33:15.343Z,245.39
2023-05-06T04:34:15.363Z,244.09
2023-05-06T04:35:15.371Z,242.99
2023-05-06T04:36:15.352Z,244.71
2023-05-06T04:37:15.420Z,243.09
2023-05-06T04:38:15.389Z,242.36
2023-05-06T04:39:15.397Z,242.74
2023-05-06T04:40:15.432Z,242.52
2023-05-06T04:41:15.436Z,242.18
2023-05-06T04:42:15.452Z,240.99
2023-05-06T04:43:15.485Z,241.61
2023-05-06T04:44:15.488Z,239.16
2023-05-06T04:45:15.514Z,240.10
2023-05-06T04:46:15.596Z,240.28
2023-05-06T04:47:15.582Z,240.15
2023-05-06T04:48:15.590Z,240.35
2023-05-06T04:49:15.677Z,240.96
2023-05-06T04:50:15.632Z,239.64
2023-05-06T04:51:15.676Z,240.09
2023-05-06T04:52:15.642Z,240.06
2023-05-06T04:53:15.649Z,238.55
2023-05-06T04:54:15.669Z,238.39
2023-05-06T04:55:15.698Z,239.69
2023-05-06T04:56:15.710Z,238.48
2023-05-06T04:57:15.754Z,238.55
2023-05-06T04:58:15.762Z,238.39
2023-05-06T04:59:15.841Z,239.06
2023-05-06T05:00:15.819Z,239.33
2023-05-06T05:01:15.925Z,239.27
2023-05-06T05:02:15.873Z,239.86
2023-05-06T05:03:16.074Z,240.55
2023-05-06T05:04:15.907Z,239.18
2023-05-06T05:05:15.992Z,240.45
2023-05-06T05:06:15.925Z,239.62
2023-05-06T05:07:15.998Z,241.36
2023-05-06T05:08:15.965Z,240.54
2023-05-06T05:09:15.974Z,241.28
2023-05-06T05:10:16.016Z,243.07
2023-05-06T05:11:16.032Z,240.66
2023-05-06T05:12:16.036Z,242.80
2023-05-06T05:13:16.188Z,242.46
2023-05-06T05:14:16.097Z,242.55
2023-05-06T05:15:16.104Z,242.89
2023-05-06T05:16:16.141Z,242.88
2023-05-06T05:17:16.290Z,242.29
2023-05-06T05:18:16.173Z,243.53
2023-05-06T05:19:16.206Z,243.03
2023-05-06T05:20:16.215Z,243.29
2023-05-06T05:21:16.226Z,244.22
2023-05-06T05:22:16.254Z,243.97
2023-05-06T05:23:16.266Z,245.15
2023-05-06T05:24:16.329Z,244.29
2023-05-06T05:25:16.310Z,244.66
2023-05-06T05:26:16.324Z,245.34
2023-05-06T05:27:16.381Z,246.38
2023-05-06T05:28:16.397Z,246.92
2023-05-06T05:29:16.400Z,246.72
2023-05-06T05:30:16.404Z,247.20
2023-05-06T05:31:16.479Z,248.46
2023-05-06T05:32:16.450Z,248.04
2023-05-06T05:33:16.585Z,248.29
2023-05-06T05:34:16.446Z,247.65
2023-05-06T05:35:16.489Z,246.66
2023-05-06T05:36:16.498Z,244.71
2023-05-06T05:37:16.617Z,243.62
2023-05-06T05:38:16.561Z,243.49
2023-05-06T05:39:16.563Z,242.35
2023-05-06T05:40:16.557Z,242.51
2023-05-06T05:41:17.548Z,242.48
2023-05-06T05:42:16.612Z,242.36
2023-05-06T05:43:16.597Z,242.60
2023-05-06T05:44:16.599Z,242.08
2023-05-06T05:45:16.615Z,242.43
2023-05-06T05:46:16.723Z,241.25
2023-05-06T05:47:16.689Z,241.76
2023-05-06T05:48:16.713Z,241.49
2023-05-06T05:49:16.716Z,242.63
2023-05-06T05:50:16.743Z,242.72
2023-05-06T05:51:16.734Z,241.57
2023-05-06T05:52:16.810Z,243.26
2023-05-06T05:53:16.853Z,241.91
2023-05-06T05:54:16.830Z,242.06
2023-05-06T05:55:16.825Z,243.11
2023-05-06T05:56:16.790Z,242.76
2023-05-06T05:57:16.858Z,241.87
2023-05-06T05:58:16.842Z,242.92
2023-05-06T05:59:16.880Z,242.88
2023-05-06T06:00:16.886Z,241.74
2023-05-06T06:01:16.876Z,243.47
2023-05-06T06:02:16.924Z,241.80
2023-05-06T06:03:16.965Z,241.80
2023-05-06T06:04:16.936Z,241.11
2023-05-06T06:05:16.929Z,241.62
2023-05-06T06:06:16.935Z,242.02
2023-05-06T06:07:16.985Z,241.51
2023-05-06T06:08:16.966Z,241.66
2023-05-06T06:09:17.056Z,241.21
2023-05-06T06:10:17.051Z,240.83
2023-05-06T06:11:17.006Z,240.15
2023-05-06T06:12:17.043Z,241.09
2023-05-06T06:13:17.076Z,239.67
2023-05-06T06:14:17.067Z,240.20
2023-05-06T06:15:17.023Z,238.69
2023-05-06T06:16:17.131Z,238.22
2023-05-06T06:17:17.095Z,238.90
2023-05-06T06:18:17.092Z,238.59
2023-05-06T06:19:17.123Z,239.46
2023-05-06T06:20:17.122Z,238.18
2023-05-06T06:21:17.118Z,237.94
2023-05-06T06:22:17.161Z,238.35
2023-05-06T06:23:17.130Z,238.37
2023-05-06T06:24:17.122Z,237.54
2023-05-06T06:25:17.314Z,237.02
2023-05-06T06:26:17.179Z,238.36
2023-05-06T06:27:17.182Z,238.14
2023-05-06T06:28:17.190Z,237.18
2023-05-06T06:29:17.195Z,237.90
2023-05-06T06:30:17.207Z,237.66
2023-05-06T06:31:17.253Z,237.59
2023-05-06T06:32:17.216Z,237.42
2023-05-06T06:33:17.245Z,235.89
2023-05-06T06:34:17.241Z,236.35
2023-05-06T06:35:17.240Z,235.13
2023-05-06T06:36:17.256Z,234.02
2023-05-06T06:37:17.244Z,233.37
2023-05-06T06:38:17.252Z,233.19
2023-05-06T06:39:17.277Z,232.71
2023-05-06T06:40:17.282Z,229.65
2023-05-06T06:41:17.330Z,229.76
2023-05-06T06:42:17.268Z,229.60
2023-05-06T06:43:17.253Z,227.70
2023-05-06T06:44:17.271Z,227.62
2023-05-06T06:45:17.312Z,227.66
2023-05-06T06:46:17.365Z,226.82
2023-05-06T06:47:17.315Z,226.01
2023-05-06T06:48:17.295Z,225.44
2023-05-06T06:49:17.297Z,226.04
2023-05-06T06:50:17.315Z,223.49
2023-05-06T06:51:17.326Z,222.17
2023-05-06T06:52:17.326Z,222.68
2023-05-06T06:53:17.315Z,222.03
2023-05-06T06:54:17.271Z,222.01
2023-05-06T06:55:17.282Z,223.48
2023-05-06T06:56:17.280Z,221.55
2023-05-06T06:57:17.305Z,223.28
2023-05-06T06:58:17.253Z,220.95
2023-05-06T06:59:17.261Z,222.05
2023-05-06T07:00:17.282Z,221.41
2023-05-06T07:01:17.292Z,222.01
2023-05-06T07:02:17.408Z,220.83
2023-05-06T07:03:17.294Z,222.46
2023-05-06T07:04:17.320Z,221.57
2023-05-06T07:05:17.301Z,220.37
2023-05-06T07:06:17.330Z,221.15
2023-05-06T07:07:17.316Z,220.27
2023-05-06T07:08:17.371Z,219.02
2023-05-06T07:09:17.342Z,218.68
2023-05-06T07:10:17.350Z,218.73
2023-05-06T07:11:17.352Z,216.89
2023-05-06T07:12:17.356Z,216.04
2023-05-06T07:13:17.515Z,217.98
2023-05-06T07:14:17.334Z,218.09
2023-05-06T07:15:17.324Z,215.64
2023-05-06T07:16:17.327Z,216.57
2023-05-06T07:17:17.392Z,214.92
2023-05-06T07:18:17.317Z,215.10
2023-05-06T07:19:17.331Z,215.09
2023-05-06T07:20:17.321Z,217.08
2023-05-06T07:21:17.316Z,216.75
2023-05-06T07:22:17.331Z,215.80
2023-05-06T07:23:17.304Z,215.84
2023-05-06T07:24:17.336Z,216.18
2023-05-06T07:25:17.300Z,216.47
2023-05-06T07:26:17.277Z,214.66
2023-05-06T07:27:17.289Z,216.93
2023-05-06T07:28:17.286Z,219.07
2023-05-06T07:29:17.363Z,215.58
2023-05-06T07:30:17.277Z,218.51
2023-05-06T07:31:17.317Z,216.98
2023-05-06T07:32:17.248Z,219.04
2023-05-06T07:33:17.317Z,217.06
2023-05-06T07:34:17.304Z,217.74
2023-05-06T07:35:17.296Z,217.00
2023-05-06T07:36:17.246Z,216.64
2023-05-06T07:37:17.263Z,216.25
2023-05-06T07:38:17.223Z,216.43
2023-05-06T07:39:17.300Z,216.86
2023-05-06T07:40:17.222Z,216.43
2023-05-06T07:41:17.299Z,214.83
2023-05-06T07:42:17.255Z,214.79
2023-05-06T07:43:17.300Z,214.56
2023-05-06T07:44:17.306Z,215.14
2023-05-06T07:45:17.451Z,213.07
2023-05-06T07:46:17.430Z,215.77
2023-05-06T07:47:17.513Z,214.22
2023-05-06T07:48:19.745Z,213.96
2023-05-06T07:49:17.600Z,215.10
2023-05-06T07:50:17.648Z,214.63
2023-05-06T07:51:17.681Z,214.43
2023-05-06T07:52:17.764Z,214.42
2023-05-06T07:53:17.807Z,214.83
2023-05-06T07:54:17.880Z,215.24
2023-05-06T07:55:17.925Z,214.15
2023-05-06T07:56:17.998Z,214.28
2023-05-06T07:57:18.065Z,215.13
2023-05-06T07:58:18.135Z,214.14
2023-05-06T07:59:18.247Z,214.79
2023-05-06T08:00:18.266Z,215.23
2023-05-06T08:01:18.380Z,216.03
2023-05-06T08:02:18.454Z,215.54
2023-05-06T08:03:18.592Z,217.14
2023-05-06T08:04:18.577Z,217.03
2023-05-06T08:05:18.580Z,215.86
2023-05-06T08:06:18.596Z,217.66
2023-05-06T08:07:18.695Z,215.68
2023-05-06T08:08:18.757Z,216.37
2023-05-06T08:09:23.073Z,215.58
2023-05-06T08:10:18.801Z,215.69
2023-05-06T08:11:19.344Z,215.92
2023-05-06T08:12:18.784Z,215.85
2023-05-06T08:13:18.889Z,216.79
2023-05-06T08:14:18.760Z,217.63
2023-05-06T08:15:18.747Z,216.65
2023-05-06T08:16:18.804Z,214.52
2023-05-06T08:17:18.807Z,214.46
2023-05-06T08:18:22.672Z,214.39
2023-05-06T08:19:18.729Z,214.47
2023-05-06T08:20:18.707Z,214.57
2023-05-06T08:21:18.698Z,215.10
2023-05-06T08:22:18.704Z,215.35
2023-05-06T08:23:18.710Z,215.48
2023-05-06T08:24:18.689Z,214.19
2023-05-06T08:25:18.680Z,215.62
2023-05-06T08:26:18.653Z,216.20
2023-05-06T08:27:18.655Z,216.96
2023-05-06T08:28:18.715Z,217.20
2023-05-06T08:29:18.638Z,216.17
2023-05-06T08:30:18.652Z,216.39
2023-05-06T08:31:18.726Z,218.14
2023-05-06T08:32:18.620Z,218.18
2023-05-06T08:33:18.644Z,217.48
2023-05-06T08:34:18.637Z,217.87
2023-05-06T08:35:18.585Z,217.81
2023-05-06T08:36:18.608Z,219.19
2023-05-06T08:37:18.566Z,216.08
2023-05-06T08:38:18.604Z,216.78
2023-05-06T08:39:18.587Z,216.39
2023-05-06T08:40:18.586Z,215.76
2023-05-06T08:41:18.540Z,216.85
2023-05-06T08:42:18.598Z,214.56
2023-05-06T08:43:18.553Z,212.68
2023-05-06T08:44:18.554Z,212.72
2023-05-06T08:45:18.555Z,213.30
2023-05-06T08:46:18.739Z,212.10
2023-05-06T08:47:18.559Z,213.01
2023-05-06T08:48:18.560Z,212.04
2023-05-06T08:49:18.681Z,210.92
2023-05-06T08:50:18.635Z,212.07
2023-05-06T08:51:18.637Z,212.92
2023-05-06T08:52:18.708Z,210.55
2023-05-06T08:53:18.706Z,211.54
2023-05-06T08:54:18.714Z,210.92
2023-05-06T08:55:18.775Z,211.12
2023-05-06T08:56:18.781Z,209.54
2023-05-06T08:57:18.836Z,209.22
2023-05-06T08:58:18.813Z,207.87
2023-05-06T08:59:18.861Z,207.10
2023-05-06T09:00:18.878Z,207.41
2023-05-06T09:01:18.989Z,206.53
2023-05-06T09:02:18.939Z,206.89
2023-05-06T09:03:19.108Z,205.96
2023-05-06T09:04:18.982Z,205.73
2023-05-06T09:05:18.978Z,205.97
2023-05-06T09:06:18.993Z,208.23
2023-05-06T09:07:19.073Z,207.83
2023-05-06T09:08:19.019Z,205.78
2023-05-06T09:09:19.041Z,206.86
2023-05-06T09:10:19.288Z,206.86
2023-05-06T09:11:19.088Z,209.65
2023-05-06T09:12:19.096Z,208.10
2023-05-06T09:13:19.166Z,207.66
2023-05-06T09:14:19.177Z,206.10
2023-05-06T09:15:19.255Z,207.29
2023-05-06T09:16:19.289Z,205.87
2023-05-06T09:17:19.237Z,207.85
2023-05-06T09:18:19.288Z,208.49
2023-05-06T09:19:19.292Z,209.78
2023-05-06T09:20:19.355Z,207.77
2023-05-06T09:21:19.429Z,210.44
2023-05-06T09:22:19.361Z,208.63
2023-05-06T09:23:19.380Z,208.65
2023-05-06T09:24:19.385Z,208.38
2023-05-06T09:25:19.414Z,209.58
2023-05-06T09:26:19.441Z,207.71
2023-05-06T09:27:19.436Z,209.78
2023-05-06T09:28:19.526Z,210.01
2023-05-06T09:29:19.520Z,206.34
2023-05-06T09:30:19.527Z,207.59
2023-05-06T09:31:19.567Z,208.32
2023-05-06T09:32:19.539Z,204.66
2023-05-06T09:33:19.589Z,206.09
2023-05-06T09:34:19.625Z,207.90
2023-05-06T09:35:19.627Z,209.06
2023-05-06T09:36:19.618Z,209.83
2023-05-06T09:37:19.724Z,210.92
2023-05-06T09:38:19.688Z,208.82
2023-05-06T09:39:19.807Z,209.64
2023-05-06T09:40:19.742Z,208.95
2023-05-06T09:41:19.788Z,207.89
2023-05-06T09:42:19.850Z,208.83
2023-05-06T09:43:19.828Z,208.27
2023-05-06T09:44:19.827Z,208.75
2023-05-06T09:45:19.832Z,209.19
2023-05-06T09:46:19.861Z,208.20
2023-05-06T09:47:19.895Z,208.71
2023-05-06T09:48:19.881Z,205.81
2023-05-06T09:49:19.908Z,205.91
2023-05-06T09:50:19.968Z,206.91
2023-05-06T09:51:19.975Z,206.56
2023-05-06T09:52:20.077Z,204.96
2023-05-06T09:53:20.150Z,207.30
2023-05-06T09:54:20.043Z,207.25
2023-05-06T09:55:20.045Z,207.72
2023-05-06T09:56:20.074Z,206.79
2023-05-06T09:57:20.088Z,207.21
2023-05-06T09:58:20.123Z,207.66
2023-05-06T09:59:20.106Z,206.16
2023-05-06T10:00:20.194Z,207.68
2023-05-06T10:01:32.547Z,206.89
2023-05-06T10:02:21.204Z,206.96
2023-05-06T10:03:20.345Z,207.38
2023-05-06T10:04:20.324Z,207.83
2023-05-06T10:05:20.179Z,207.85
2023-05-06T10:06:20.138Z,208.20
2023-05-06T10:07:20.134Z,209.14
2023-05-06T10:08:20.100Z,208.90
2023-05-06T10:09:20.204Z,207.79
2023-05-06T10:10:20.059Z,206.48
2023-05-06T10:11:20.094Z,207.85
2023-05-06T10:12:20.148Z,205.87
2023-05-06T10:13:20.153Z,208.22
2023-05-06T10:14:20.037Z,209.03
2023-05-06T10:15:20.033Z,208.91
2023-05-06T10:16:20.064Z,206.69
2023-05-06T10:17:20.027Z,207.82
2023-05-06T10:18:20.035Z,208.01
2023-05-06T10:19:20.002Z,208.89
2023-05-06T10:20:19.998Z,207.22
2023-05-06T10:21:20.023Z,207.24
2023-05-06T10:22:20.035Z,206.43
2023-05-06T10:23:19.991Z,204.73
2023-05-06T10:24:19.974Z,203.68
2023-05-06T10:25:20.012Z,205.14
2023-05-06T10:26:19.984Z,207.50
2023-05-06T10:27:19.970Z,207.01
2023-05-06T10:28:25.098Z,206.51
2023-05-06T10:29:20.947Z,206.63
2023-05-06T10:30:19.967Z,207.03
2023-05-06T10:31:20.008Z,207.98
2023-05-06T10:32:19.933Z,208.96
2023-05-06T10:33:19.923Z,211.87
2023-05-06T10:34:19.931Z,212.92
2023-05-06T10:35:19.914Z,211.34
2023-05-06T10:36:19.893Z,213.44
2023-05-06T10:37:19.889Z,211.61
2023-05-06T10:38:19.887Z,211.84
2023-05-06T10:39:19.887Z,212.62
2023-05-06T10:40:19.847Z,214.91
2023-05-06T10:41:20.002Z,215.19
2023-05-06T10:42:19.836Z,216.67
2023-05-06T10:43:19.836Z,215.91
2023-05-06T10:44:19.899Z,216.98
2023-05-06T10:45:19.827Z,218.30
2023-05-06T10:46:19.843Z,220.25
2023-05-06T10:47:19.795Z,222.31
2023-05-06T10:48:19.815Z,220.93
2023-05-06T10:49:19.830Z,220.53
2023-05-06T10:50:19.798Z,220.04
2023-05-06T10:51:19.800Z,221.68
2023-05-06T10:52:19.817Z,221.80
2023-05-06T10:53:19.780Z,223.50
2023-05-06T10:54:19.762Z,222.21
2023-05-06T10:55:19.744Z,220.77
2023-05-06T10:56:19.742Z,222.03
2023-05-06T10:57:19.729Z,223.34
2023-05-06T10:58:19.739Z,222.39
2023-05-06T10:59:19.745Z,223.46
2023-05-06T11:00:19.736Z,222.99
2023-05-06T11:01:19.716Z,220.53
2023-05-06T11:02:19.839Z,222.21
2023-05-06T11:03:19.810Z,222.34
2023-05-06T11:04:19.708Z,223.44
2023-05-06T11:05:19.689Z,222.66
2023-05-06T11:06:19.694Z,222.27
2023-05-06T11:07:19.698Z,222.55
2023-05-06T11:08:19.680Z,220.88
2023-05-06T11:09:19.694Z,222.19
2023-05-06T11:10:19.669Z,222.45
2023-05-06T11:11:19.712Z,221.86
2023-05-06T11:12:19.662Z,221.50
2023-05-06T11:13:19.876Z,221.03
2023-05-06T11:14:19.628Z,221.21
2023-05-06T11:15:19.616Z,219.87
2023-05-06T11:16:19.657Z,220.55
2023-05-06T11:17:19.604Z,220.25
2023-05-06T11:18:19.619Z,220.30
2023-05-06T11:19:19.610Z,220.34
2023-05-06T11:20:19.607Z,219.02
2023-05-06T11:21:19.592Z,218.10
2023-05-06T11:22:19.562Z,215.74
2023-05-06T11:23:19.615Z,213.39
2023-05-06T11:24:19.592Z,215.49
2023-05-06T11:25:19.592Z,218.37
2023-05-06T11:26:19.568Z,216.85
2023-05-06T11:27:19.558Z,218.82
2023-05-06T11:28:19.612Z,219.10
2023-05-06T11:29:19.611Z,221.08
2023-05-06T11:30:19.519Z,221.60
2023-05-06T11:31:19.576Z,222.59
2023-05-06T11:32:19.543Z,222.53
2023-05-06T11:33:19.506Z,222.98
2023-05-06T11:34:19.557Z,222.90
2023-05-06T11:35:19.493Z,223.73
2023-05-06T11:36:19.509Z,222.10
2023-05-06T11:37:19.526Z,222.77
2023-05-06T11:38:19.489Z,222.15
2023-05-06T11:39:19.470Z,222.74
2023-05-06T11:40:19.461Z,221.72
2023-05-06T11:41:19.507Z,221.78
2023-05-06T11:42:19.456Z,221.08
2023-05-06T11:43:19.461Z,221.42
2023-05-06T11:44:19.469Z,219.55
2023-05-06T11:45:19.522Z,220.14
2023-05-06T11:46:19.482Z,220.36
2023-05-06T11:47:19.463Z,220.19
2023-05-06T11:48:19.432Z,218.46
2023-05-06T11:49:19.399Z,217.98
2023-05-06T11:50:19.421Z,218.72
2023-05-06T11:51:19.395Z,218.00
2023-05-06T11:52:19.389Z,214.89
2023-05-06T11:53:19.413Z,211.74
2023-05-06T11:54:19.386Z,212.02
2023-05-06T11:55:19.356Z,213.53
2023-05-06T11:56:19.376Z,214.76
2023-05-06T11:57:19.411Z,214.63
2023-05-06T11:58:19.375Z,213.97
2023-05-06T11:59:19.369Z,212.73
2023-05-06T12:00:19.379Z,214.76
2023-05-06T12:01:19.361Z,213.86
2023-05-06T12:02:19.367Z,210.32
2023-05-06T12:03:19.427Z,208.65
2023-05-06T12:04:19.357Z,204.82
2023-05-06T12:05:19.319Z,204.09
2023-05-06T12:06:19.363Z,205.29
2023-05-06T12:07:19.324Z,206.30
2023-05-06T12:08:26.619Z,208.80
2023-05-06T12:09:20.296Z,208.91
2023-05-06T12:10:19.301Z,209.00
2023-05-06T12:11:19.297Z,209.13
2023-05-06T12:12:19.369Z,209.92
2023-05-06T12:13:19.431Z,210.80
2023-05-06T12:14:19.258Z,214.79
2023-05-06T12:15:19.284Z,214.59
2023-05-06T12:16:19.329Z,215.56
2023-05-06T12:17:19.305Z,214.25
2023-05-06T12:18:19.233Z,212.42
2023-05-06T12:19:19.249Z,215.07
2023-05-06T12:20:19.235Z,216.94
2023-05-06T12:21:19.241Z,217.55
2023-05-06T12:22:19.363Z,217.87
2023-05-06T12:23:19.218Z,218.50
2023-05-06T12:24:19.221Z,220.43
2023-05-06T12:25:19.195Z,219.86
2023-05-06T12:26:19.159Z,218.97
2023-05-06T12:27:19.160Z,221.03
2023-05-06T12:28:19.199Z,221.40